KMAE

Madera Municipal Airport

Madera, California, USA
METAR KMAE 190653Z AUTO 00000KT 10SM CLR 10/07 A3040 RMK AO2 SLP292 T01000072
Observed Flight Rules
Jan-19 @ 06:53 UTC (23 minutes ago) Visual Flight Rules
Visibility Clouds
10 miles
  • Clear skies
Temperatures Readings
Current 10°C / 50°F
Dewpoint 7°C / 45°F
Humidity 82%
Altimeter 30.4" Hg
Pressure 1029.2 hPa
Elevation 77
METAR KMAE 190653Z AUTO 00000KT 10SM CLR 10/07 A3040 RMK AO2 SLP292 T01000072
Observed Flight Rules
Jan-19 @ 06:53 UTC
(23 minutes ago)
VFR
Clouds
  • Clear skies
Temperature Dewpoint
10°C / 50°F 7°C / 45°F
Humidity Altimeter Pressure
82% 30.4" Hg 1029.2 hPa